Lawrenceville, Alabama
Current Conditions -  °F | °C
As of 2:53 PM on Saturday 25 Oct 2014 (Local Time) from KDHN Reporting Station
Clear Clear  
Wind Chill: 78°   Ceiling: Unl
Heat Index: 79°   Visibility: 10mi
Dew Point: 49°   Wind: 10mph
Humidity: 36%   Direction: 340°NNW
Pressure: 30.05"   Gusts: NA
Location:  31.598°N, 85.3148°W
Report Text: KDHN 251953Z 34009KT 10SM CLR 26/09 A3005 RMK AO2 SLP171 T02560094
Loading
Personal Weather Stations






























Interactive Weather Map
Tropical Storm Tracking
New forecast layout! Learn more

10-Day Weather Forecast

Advertisements
Track Severe Weather on mobile